Dundalk, Canada
Current Conditions -  °F | °C
As of 12:14 PM on Thursday 30 Oct 2014 (Local Time) from CYBN Reporting Station
Overcast Overcast  
Wind Chill: 41°   Ceiling: 700
Heat Index: 41°   Visibility: 8mi
Dew Point: 41°   Wind: 0mph
Humidity: 100%   Direction: NA
Pressure: 30.07"   Gusts: NA
Location:  44.17°N, 80.38°W
Report Text: CYBN 301614Z AUTO 00000KT 8SM OVC007 OVC021 05/05 A3007
Loading
Personal Weather Stations






























Interactive Weather Map
Tropical Storm Tracking
New forecast layout! Learn more

10-Day Weather Forecast

Advertisements
Track Severe Weather on mobile